sensor_id;sensor_type;location;lat;lon;timestamp;temperature;humidity
4757;DHT22;2392;52.578;13.426;2023-01-06T00:01:05;5.20;99.90
4757;DHT22;2392;52.578;13.426;2023-01-06T00:03:33;5.20;99.90
4757;DHT22;2392;52.578;13.426;2023-01-06T00:06:02;5.20;99.90
4757;DHT22;2392;52.578;13.426;2023-01-06T00:08:29;5.20;99.90
4757;DHT22;2392;52.578;13.426;2023-01-06T00:10:56;5.20;99.90
4757;DHT22;2392;52.578;13.426;2023-01-06T00:13:24;5.30;99.90
4757;DHT22;2392;52.578;13.426;2023-01-06T00:15:51;5.30;99.90
4757;DHT22;2392;52.578;13.426;2023-01-06T00:18:20;5.30;99.90
4757;DHT22;2392;52.578;13.426;2023-01-06T00:20:47;5.40;99.90
4757;DHT22;2392;52.578;13.426;2023-01-06T00:23:14;5.40;99.90
4757;DHT22;2392;52.578;13.426;2023-01-06T00:25:48;5.50;99.90
4757;DHT22;2392;52.578;13.426;2023-01-06T00:28:15;5.60;99.90
4757;DHT22;2392;52.578;13.426;2023-01-06T00:30:43;5.60;99.90
4757;DHT22;2392;52.578;13.426;2023-01-06T00:33:11;5.70;99.90
4757;DHT22;2392;52.578;13.426;2023-01-06T00:35:40;5.70;99.90
4757;DHT22;2392;52.578;13.426;2023-01-06T00:38:07;5.70;99.90
4757;DHT22;2392;52.578;13.426;2023-01-06T00:40:35;5.70;99.90
4757;DHT22;2392;52.578;13.426;2023-01-06T00:43:03;5.70;99.90
4757;DHT22;2392;52.578;13.426;2023-01-06T00:45:30;5.70;99.90
4757;DHT22;2392;52.578;13.426;2023-01-06T00:47:58;5.60;99.90
4757;DHT22;2392;52.578;13.426;2023-01-06T00:50:25;5.60;99.90
4757;DHT22;2392;52.578;13.426;2023-01-06T00:52:52;5.50;99.90
4757;DHT22;2392;52.578;13.426;2023-01-06T00:55:24;5.50;99.90
4757;DHT22;2392;52.578;13.426;2023-01-06T00:57:55;5.50;99.90
4757;DHT22;2392;52.578;13.426;2023-01-06T01:00:22;5.50;99.90
4757;DHT22;2392;52.578;13.426;2023-01-06T01:02:49;5.50;99.90
4757;DHT22;2392;52.578;13.426;2023-01-06T01:05:17;5.50;99.90
4757;DHT22;2392;52.578;13.426;2023-01-06T01:07:44;5.50;99.90
4757;DHT22;2392;52.578;13.426;2023-01-06T01:10:12;5.50;99.90
4757;DHT22;2392;52.578;13.426;2023-01-06T01:12:39;5.50;99.90
4757;DHT22;2392;52.578;13.426;2023-01-06T01:15:07;5.40;99.90
4757;DHT22;2392;52.578;13.426;2023-01-06T01:17:34;5.40;99.90
4757;DHT22;2392;52.578;13.426;2023-01-06T01:20:01;5.30;99.90
4757;DHT22;2392;52.578;13.426;2023-01-06T01:22:30;5.20;99.90
4757;DHT22;2392;52.578;13.426;2023-01-06T01:25:00;5.30;99.90
4757;DHT22;2392;52.578;13.426;2023-01-06T01:27:27;5.30;99.90
4757;DHT22;2392;52.578;13.426;2023-01-06T01:29:54;5.30;99.90
4757;DHT22;2392;52.578;13.426;2023-01-06T01:32:22;5.30;99.90
4757;DHT22;2392;52.578;13.426;2023-01-06T01:34:50;5.30;99.90
4757;DHT22;2392;52.578;13.426;2023-01-06T01:37:17;5.30;99.90
4757;DHT22;2392;52.578;13.426;2023-01-06T01:39:45;5.20;99.90
4757;DHT22;2392;52.578;13.426;2023-01-06T01:42:16;5.20;99.90
4757;DHT22;2392;52.578;13.426;2023-01-06T01:44:58;5.10;99.90
4757;DHT22;2392;52.578;13.426;2023-01-06T01:47:32;5.20;99.90
4757;DHT22;2392;52.578;13.426;2023-01-06T01:50:04;5.10;99.90
4757;DHT22;2392;52.578;13.426;2023-01-06T01:52:32;5.20;99.90
4757;DHT22;2392;52.578;13.426;2023-01-06T01:55:02;5.20;99.90
4757;DHT22;2392;52.578;13.426;2023-01-06T01:57:35;5.20;99.90
4757;DHT22;2392;52.578;13.426;2023-01-06T02:00:05;5.30;99.90
4757;DHT22;2392;52.578;13.426;2023-01-06T02:02:39;5.20;99.90
4757;DHT22;2392;52.578;13.426;2023-01-06T02:05:10;5.30;99.90
4757;DHT22;2392;52.578;13.426;2023-01-06T02:07:39;5.30;99.90
4757;DHT22;2392;52.578;13.426;2023-01-06T02:10:11;5.40;99.90
4757;DHT22;2392;52.578;13.426;2023-01-06T02:12:39;5.50;99.90
4757;DHT22;2392;52.578;13.426;2023-01-06T02:15:16;5.60;99.90
4757;DHT22;2392;52.578;13.426;2023-01-06T02:18:03;5.60;99.90
4757;DHT22;2392;52.578;13.426;2023-01-06T02:32:58;5.90;99.90
4757;DHT22;2392;52.578;13.426;2023-01-06T02:35:48;5.80;99.90
4757;DHT22;2392;52.578;13.426;2023-01-06T02:38:27;5.90;99.90
4757;DHT22;2392;52.578;13.426;2023-01-06T02:41:11;5.90;99.90
4757;DHT22;2392;52.578;13.426;2023-01-06T02:43:51;5.90;99.90
4757;DHT22;2392;52.578;13.426;2023-01-06T02:46:30;5.90;99.90
4757;DHT22;2392;52.578;13.426;2023-01-06T02:49:09;5.90;99.90
4757;DHT22;2392;52.578;13.426;2023-01-06T02:51:43;5.90;99.90
4757;DHT22;2392;52.578;13.426;2023-01-06T02:54:18;5.80;99.90
4757;DHT22;2392;52.578;13.426;2023-01-06T02:56:49;5.80;99.90
4757;DHT22;2392;52.578;13.426;2023-01-06T02:59:21;5.80;99.90
4757;DHT22;2392;52.578;13.426;2023-01-06T03:01:51;5.80;99.90
4757;DHT22;2392;52.578;13.426;2023-01-06T03:04:24;5.80;99.90
4757;DHT22;2392;52.578;13.426;2023-01-06T03:06:55;5.80;99.90
4757;DHT22;2392;52.578;13.426;2023-01-06T03:09:27;5.80;99.90
4757;DHT22;2392;52.578;13.426;2023-01-06T03:11:55;5.80;99.90
4757;DHT22;2392;52.578;13.426;2023-01-06T03:14:26;5.80;99.90
4757;DHT22;2392;52.578;13.426;2023-01-06T03:16:54;5.80;99.90
4757;DHT22;2392;52.578;13.426;2023-01-06T03:19:23;5.80;99.90
4757;DHT22;2392;52.578;13.426;2023-01-06T03:21:51;5.80;99.90
4757;DHT22;2392;52.578;13.426;2023-01-06T03:24:21;5.80;99.90
4757;DHT22;2392;52.578;13.426;2023-01-06T03:26:49;5.90;99.90
4757;DHT22;2392;52.578;13.426;2023-01-06T03:29:19;5.90;99.90
4757;DHT22;2392;52.578;13.426;2023-01-06T03:31:54;5.90;99.90
4757;DHT22;2392;52.578;13.426;2023-01-06T03:34:38;5.90;99.90
4757;DHT22;2392;52.578;13.426;2023-01-06T03:37:13;6.00;99.90
4757;DHT22;2392;52.578;13.426;2023-01-06T03:39:49;6.00;99.90
4757;DHT22;2392;52.578;13.426;2023-01-06T03:42:24;6.00;99.90
4757;DHT22;2392;52.578;13.426;2023-01-06T03:45:21;6.10;99.90
4757;DHT22;2392;52.578;13.426;2023-01-06T03:47:54;6.10;99.90
4757;DHT22;2392;52.578;13.426;2023-01-06T03:50:29;6.10;99.90
4757;DHT22;2392;52.578;13.426;2023-01-06T03:53:05;6.10;99.90
4757;DHT22;2392;52.578;13.426;2023-01-06T03:55:38;6.10;99.90
4757;DHT22;2392;52.578;13.426;2023-01-06T03:58:07;6.00;99.90
4757;DHT22;2392;52.578;13.426;2023-01-06T04:00:36;5.90;99.90
4757;DHT22;2392;52.578;13.426;2023-01-06T04:03:07;5.90;99.90
4757;DHT22;2392;52.578;13.426;2023-01-06T04:05:37;5.90;99.90
4757;DHT22;2392;52.578;13.426;2023-01-06T04:08:05;5.90;99.90
4757;DHT22;2392;52.578;13.426;2023-01-06T04:10:34;5.90;99.90
4757;DHT22;2392;52.578;13.426;2023-01-06T04:13:00;5.90;99.90
4757;DHT22;2392;52.578;13.426;2023-01-06T04:15:30;6.00;99.90
4757;DHT22;2392;52.578;13.426;2023-01-06T04:17:59;5.90;99.90
4757;DHT22;2392;52.578;13.426;2023-01-06T04:20:29;6.00;99.90
4757;DHT22;2392;52.578;13.426;2023-01-06T04:23:21;6.00;99.90
4757;DHT22;2392;52.578;13.426;2023-01-06T04:25:48;6.00;99.90
4757;DHT22;2392;52.578;13.426;2023-01-06T04:28:22;6.00;99.90
4757;DHT22;2392;52.578;13.426;2023-01-06T04:30:51;6.00;99.90
4757;DHT22;2392;52.578;13.426;2023-01-06T04:33:18;5.90;99.90
4757;DHT22;2392;52.578;13.426;2023-01-06T04:35:47;6.00;99.90
4757;DHT22;2392;52.578;13.426;2023-01-06T04:38:17;6.00;99.90
4757;DHT22;2392;52.578;13.426;2023-01-06T04:40:46;6.00;99.90
4757;DHT22;2392;52.578;13.426;2023-01-06T04:43:13;6.00;99.90
4757;DHT22;2392;52.578;13.426;2023-01-06T04:45:41;6.10;99.90
4757;DHT22;2392;52.578;13.426;2023-01-06T04:48:09;6.10;99.90
4757;DHT22;2392;52.578;13.426;2023-01-06T04:50:36;6.10;99.90
4757;DHT22;2392;52.578;13.426;2023-01-06T04:53:04;6.10;99.90
4757;DHT22;2392;52.578;13.426;2023-01-06T04:55:31;6.10;99.90
4757;DHT22;2392;52.578;13.426;2023-01-06T04:57:59;6.00;99.90
4757;DHT22;2392;52.578;13.426;2023-01-06T05:00:26;6.00;99.90
4757;DHT22;2392;52.578;13.426;2023-01-06T05:02:53;6.10;99.90
4757;DHT22;2392;52.578;13.426;2023-01-06T05:05:20;6.00;99.90
4757;DHT22;2392;52.578;13.426;2023-01-06T05:07:47;6.10;99.90
4757;DHT22;2392;52.578;13.426;2023-01-06T05:10:14;6.10;99.90
4757;DHT22;2392;52.578;13.426;2023-01-06T05:12:41;6.00;99.90
4757;DHT22;2392;52.578;13.426;2023-01-06T05:15:10;6.00;99.90
4757;DHT22;2392;52.578;13.426;2023-01-06T05:17:37;6.00;99.90
4757;DHT22;2392;52.578;13.426;2023-01-06T05:20:05;6.10;99.90
4757;DHT22;2392;52.578;13.426;2023-01-06T05:22:32;6.00;99.90
4757;DHT22;2392;52.578;13.426;2023-01-06T05:24:59;6.00;99.90
4757;DHT22;2392;52.578;13.426;2023-01-06T05:27:26;6.00;99.90
4757;DHT22;2392;52.578;13.426;2023-01-06T05:29:53;6.00;99.90
4757;DHT22;2392;52.578;13.426;2023-01-06T05:32:22;6.00;99.90
4757;DHT22;2392;52.578;13.426;2023-01-06T05:34:49;6.00;99.90
4757;DHT22;2392;52.578;13.426;2023-01-06T05:37:16;5.90;99.90
4757;DHT22;2392;52.578;13.426;2023-01-06T05:39:42;5.90;99.90
4757;DHT22;2392;52.578;13.426;2023-01-06T05:42:09;5.90;99.90
4757;DHT22;2392;52.578;13.426;2023-01-06T05:44:36;5.90;99.90
4757;DHT22;2392;52.578;13.426;2023-01-06T05:47:03;5.90;99.90
4757;DHT22;2392;52.578;13.426;2023-01-06T05:49:32;5.90;99.90
4757;DHT22;2392;52.578;13.426;2023-01-06T05:51:59;5.90;99.90
4757;DHT22;2392;52.578;13.426;2023-01-06T05:54:26;6.00;99.90
4757;DHT22;2392;52.578;13.426;2023-01-06T05:56:53;6.00;99.90
4757;DHT22;2392;52.578;13.426;2023-01-06T05:59:20;5.90;99.90
4757;DHT22;2392;52.578;13.426;2023-01-06T06:01:47;6.00;99.90
4757;DHT22;2392;52.578;13.426;2023-01-06T06:04:14;5.90;99.90
4757;DHT22;2392;52.578;13.426;2023-01-06T06:06:44;6.00;99.90
4757;DHT22;2392;52.578;13.426;2023-01-06T06:09:12;5.90;99.90
4757;DHT22;2392;52.578;13.426;2023-01-06T06:11:41;5.90;99.90
4757;DHT22;2392;52.578;13.426;2023-01-06T06:14:09;6.00;99.90
4757;DHT22;2392;52.578;13.426;2023-01-06T06:16:39;6.00;99.90
4757;DHT22;2392;52.578;13.426;2023-01-06T06:19:11;6.10;99.90
4757;DHT22;2392;52.578;13.426;2023-01-06T06:21:40;6.10;99.90
4757;DHT22;2392;52.578;13.426;2023-01-06T06:24:10;6.10;99.90
4757;DHT22;2392;52.578;13.426;2023-01-06T06:26:37;6.20;99.90
4757;DHT22;2392;52.578;13.426;2023-01-06T06:29:09;6.20;99.90
4757;DHT22;2392;52.578;13.426;2023-01-06T06:31:36;6.20;99.90
4757;DHT22;2392;52.578;13.426;2023-01-06T06:34:03;6.20;99.90
4757;DHT22;2392;52.578;13.426;2023-01-06T06:36:34;6.30;99.90
4757;DHT22;2392;52.578;13.426;2023-01-06T06:39:03;6.20;99.90
4757;DHT22;2392;52.578;13.426;2023-01-06T06:41:34;6.20;99.90
4757;DHT22;2392;52.578;13.426;2023-01-06T06:44:03;6.20;99.90
4757;DHT22;2392;52.578;13.426;2023-01-06T06:46:32;6.20;99.90
4757;DHT22;2392;52.578;13.426;2023-01-06T06:48:59;6.20;99.90
4757;DHT22;2392;52.578;13.426;2023-01-06T06:51:32;6.10;99.90
4757;DHT22;2392;52.578;13.426;2023-01-06T06:54:01;6.10;99.90
4757;DHT22;2392;52.578;13.426;2023-01-06T06:56:30;6.10;99.90
4757;DHT22;2392;52.578;13.426;2023-01-06T06:59:03;6.20;99.90
4757;DHT22;2392;52.578;13.426;2023-01-06T07:01:33;6.10;99.90
4757;DHT22;2392;52.578;13.426;2023-01-06T07:04:02;6.20;99.90
4757;DHT22;2392;52.578;13.426;2023-01-06T07:06:35;6.20;99.90
4757;DHT22;2392;52.578;13.426;2023-01-06T07:09:04;6.20;99.90
4757;DHT22;2392;52.578;13.426;2023-01-06T07:11:35;6.20;99.90
4757;DHT22;2392;52.578;13.426;2023-01-06T07:16:51;6.20;99.90
4757;DHT22;2392;52.578;13.426;2023-01-06T07:19:18;6.20;99.90
4757;DHT22;2392;52.578;13.426;2023-01-06T07:21:45;6.20;99.90
4757;DHT22;2392;52.578;13.426;2023-01-06T07:24:14;6.20;99.90
4757;DHT22;2392;52.578;13.426;2023-01-06T07:26:43;6.20;99.90
4757;DHT22;2392;52.578;13.426;2023-01-06T07:29:11;6.20;99.90
4757;DHT22;2392;52.578;13.426;2023-01-06T07:31:38;6.20;99.90
4757;DHT22;2392;52.578;13.426;2023-01-06T07:34:06;6.20;99.90
4757;DHT22;2392;52.578;13.426;2023-01-06T07:36:33;6.10;99.90
4757;DHT22;2392;52.578;13.426;2023-01-06T07:39:00;6.10;99.90
4757;DHT22;2392;52.578;13.426;2023-01-06T07:41:27;6.10;99.90
4757;DHT22;2392;52.578;13.426;2023-01-06T07:43:59;6.10;99.90
4757;DHT22;2392;52.578;13.426;2023-01-06T07:46:30;6.10;99.90
4757;DHT22;2392;52.578;13.426;2023-01-06T07:48:57;6.20;99.90
4757;DHT22;2392;52.578;13.426;2023-01-06T07:51:24;6.20;99.90
4757;DHT22;2392;52.578;13.426;2023-01-06T07:53:51;6.30;99.90
4757;DHT22;2392;52.578;13.426;2023-01-06T07:56:21;6.30;99.90
4757;DHT22;2392;52.578;13.426;2023-01-06T07:58:48;6.30;99.90
4757;DHT22;2392;52.578;13.426;2023-01-06T08:01:17;6.30;99.90
4757;DHT22;2392;52.578;13.426;2023-01-06T08:03:50;6.30;99.90
4757;DHT22;2392;52.578;13.426;2023-01-06T08:06:19;6.30;99.90
4757;DHT22;2392;52.578;13.426;2023-01-06T08:08:46;6.30;99.90
4757;DHT22;2392;52.578;13.426;2023-01-06T08:11:13;6.40;99.90
4757;DHT22;2392;52.578;13.426;2023-01-06T08:13:43;6.40;99.90
4757;DHT22;2392;52.578;13.426;2023-01-06T08:16:12;6.40;99.90
4757;DHT22;2392;52.578;13.426;2023-01-06T08:18:41;6.40;99.90
4757;DHT22;2392;52.578;13.426;2023-01-06T08:21:10;6.40;99.90
4757;DHT22;2392;52.578;13.426;2023-01-06T08:23:38;6.40;99.90
4757;DHT22;2392;52.578;13.426;2023-01-06T08:26:08;6.40;99.90
4757;DHT22;2392;52.578;13.426;2023-01-06T08:28:43;6.40;99.90
4757;DHT22;2392;52.578;13.426;2023-01-06T08:31:24;6.40;99.90
4757;DHT22;2392;52.578;13.426;2023-01-06T08:33:51;6.40;99.90
4757;DHT22;2392;52.578;13.426;2023-01-06T08:36:24;6.40;99.90
4757;DHT22;2392;52.578;13.426;2023-01-06T08:38:51;6.50;99.90
4757;DHT22;2392;52.578;13.426;2023-01-06T08:41:18;6.50;99.90
4757;DHT22;2392;52.578;13.426;2023-01-06T08:43:46;6.50;99.90
4757;DHT22;2392;52.578;13.426;2023-01-06T08:46:15;6.60;99.90
4757;DHT22;2392;52.578;13.426;2023-01-06T08:48:43;6.60;99.90
4757;DHT22;2392;52.578;13.426;2023-01-06T08:51:13;6.50;99.90
4757;DHT22;2392;52.578;13.426;2023-01-06T08:53:42;6.60;99.90
4757;DHT22;2392;52.578;13.426;2023-01-06T08:56:12;6.60;99.90
4757;DHT22;2392;52.578;13.426;2023-01-06T08:58:40;6.60;99.90
4757;DHT22;2392;52.578;13.426;2023-01-06T09:01:14;6.70;99.90
4757;DHT22;2392;52.578;13.426;2023-01-06T09:03:41;6.70;99.90
4757;DHT22;2392;52.578;13.426;2023-01-06T09:06:08;6.70;99.90
4757;DHT22;2392;52.578;13.426;2023-01-06T09:08:35;6.80;99.90
4757;DHT22;2392;52.578;13.426;2023-01-06T09:11:05;6.80;99.90
4757;DHT22;2392;52.578;13.426;2023-01-06T09:13:34;6.80;99.90
4757;DHT22;2392;52.578;13.426;2023-01-06T09:16:04;6.80;99.90
4757;DHT22;2392;52.578;13.426;2023-01-06T09:18:31;6.80;99.90
4757;DHT22;2392;52.578;13.426;2023-01-06T09:21:01;6.80;99.90
4757;DHT22;2392;52.578;13.426;2023-01-06T09:23:29;6.80;99.90
4757;DHT22;2392;52.578;13.426;2023-01-06T09:25:56;6.80;99.90
4757;DHT22;2392;52.578;13.426;2023-01-06T09:28:25;6.90;99.90
4757;DHT22;2392;52.578;13.426;2023-01-06T09:30:52;6.90;99.90
4757;DHT22;2392;52.578;13.426;2023-01-06T09:33:19;6.90;99.90
4757;DHT22;2392;52.578;13.426;2023-01-06T09:35:46;7.00;99.90
4757;DHT22;2392;52.578;13.426;2023-01-06T09:38:13;7.10;99.90
4757;DHT22;2392;52.578;13.426;2023-01-06T09:40:48;7.10;99.90
4757;DHT22;2392;52.578;13.426;2023-01-06T09:43:25;7.10;99.90
4757;DHT22;2392;52.578;13.426;2023-01-06T09:45:57;7.10;99.90
4757;DHT22;2392;52.578;13.426;2023-01-06T09:48:30;7.10;99.90
4757;DHT22;2392;52.578;13.426;2023-01-06T09:51:00;7.10;99.90
4757;DHT22;2392;52.578;13.426;2023-01-06T09:53:32;7.20;99.90
4757;DHT22;2392;52.578;13.426;2023-01-06T09:56:03;7.20;99.90
4757;DHT22;2392;52.578;13.426;2023-01-06T09:58:36;7.30;99.90
4757;DHT22;2392;52.578;13.426;2023-01-06T10:01:07;7.30;99.90
4757;DHT22;2392;52.578;13.426;2023-01-06T10:03:36;7.30;99.90
4757;DHT22;2392;52.578;13.426;2023-01-06T10:06:14;7.40;99.90
4757;DHT22;2392;52.578;13.426;2023-01-06T10:08:52;7.50;99.90
4757;DHT22;2392;52.578;13.426;2023-01-06T10:11:24;7.50;99.90
4757;DHT22;2392;52.578;13.426;2023-01-06T10:14:03;7.50;99.90
4757;DHT22;2392;52.578;13.426;2023-01-06T10:16:41;7.50;99.90
4757;DHT22;2392;52.578;13.426;2023-01-06T10:19:18;7.50;99.90
4757;DHT22;2392;52.578;13.426;2023-01-06T10:21:56;7.50;99.90
4757;DHT22;2392;52.578;13.426;2023-01-06T10:24:36;7.60;99.90
4757;DHT22;2392;52.578;13.426;2023-01-06T10:27:19;7.70;99.90
4757;DHT22;2392;52.578;13.426;2023-01-06T10:29:51;7.70;99.90
4757;DHT22;2392;52.578;13.426;2023-01-06T10:32:23;7.80;99.90
4757;DHT22;2392;52.578;13.426;2023-01-06T10:34:52;7.80;99.90
4757;DHT22;2392;52.578;13.426;2023-01-06T10:37:21;7.90;99.90
4757;DHT22;2392;52.578;13.426;2023-01-06T10:39:55;8.00;99.90
4757;DHT22;2392;52.578;13.426;2023-01-06T10:42:31;8.10;99.90
4757;DHT22;2392;52.578;13.426;2023-01-06T10:45:22;8.10;99.90
4757;DHT22;2392;52.578;13.426;2023-01-06T10:47:51;8.20;99.90
4757;DHT22;2392;52.578;13.426;2023-01-06T10:50:19;8.20;99.90
4757;DHT22;2392;52.578;13.426;2023-01-06T10:52:47;8.30;99.90
4757;DHT22;2392;52.578;13.426;2023-01-06T10:55:33;8.30;99.90
4757;DHT22;2392;52.578;13.426;2023-01-06T10:58:10;8.40;99.90
4757;DHT22;2392;52.578;13.426;2023-01-06T11:00:53;8.40;99.90
4757;DHT22;2392;52.578;13.426;2023-01-06T11:03:21;8.40;99.90
4757;DHT22;2392;52.578;13.426;2023-01-06T11:06:00;8.40;99.90
4757;DHT22;2392;52.578;13.426;2023-01-06T11:08:27;8.40;99.90
4757;DHT22;2392;52.578;13.426;2023-01-06T11:10:55;8.40;99.90
4757;DHT22;2392;52.578;13.426;2023-01-06T11:13:28;8.40;99.90
4757;DHT22;2392;52.578;13.426;2023-01-06T11:15:58;8.40;99.90
4757;DHT22;2392;52.578;13.426;2023-01-06T11:18:27;8.50;99.90
4757;DHT22;2392;52.578;13.426;2023-01-06T11:21:05;8.50;99.90
4757;DHT22;2392;52.578;13.426;2023-01-06T11:23:34;8.50;99.90
4757;DHT22;2392;52.578;13.426;2023-01-06T11:26:05;8.50;99.90
4757;DHT22;2392;52.578;13.426;2023-01-06T11:28:34;8.60;99.90
4757;DHT22;2392;52.578;13.426;2023-01-06T11:31:04;8.60;99.90
4757;DHT22;2392;52.578;13.426;2023-01-06T11:33:34;8.60;99.90
4757;DHT22;2392;52.578;13.426;2023-01-06T11:36:07;8.60;99.90
4757;DHT22;2392;52.578;13.426;2023-01-06T11:38:46;8.70;99.90
4757;DHT22;2392;52.578;13.426;2023-01-06T11:41:21;8.70;99.90
4757;DHT22;2392;52.578;13.426;2023-01-06T11:43:49;8.70;99.90
4757;DHT22;2392;52.578;13.426;2023-01-06T11:46:20;8.80;99.90
4757;DHT22;2392;52.578;13.426;2023-01-06T11:48:55;8.80;99.90
4757;DHT22;2392;52.578;13.426;2023-01-06T11:51:30;8.80;99.90
4757;DHT22;2392;52.578;13.426;2023-01-06T11:53:58;8.80;99.90
4757;DHT22;2392;52.578;13.426;2023-01-06T11:56:26;8.80;99.90
4757;DHT22;2392;52.578;13.426;2023-01-06T11:58:59;8.80;99.90
4757;DHT22;2392;52.578;13.426;2023-01-06T12:01:37;8.90;99.90
4757;DHT22;2392;52.578;13.426;2023-01-06T12:04:13;8.90;99.90
4757;DHT22;2392;52.578;13.426;2023-01-06T12:06:42;8.90;99.90
4757;DHT22;2392;52.578;13.426;2023-01-06T12:09:16;9.00;99.90
4757;DHT22;2392;52.578;13.426;2023-01-06T12:11:45;9.00;99.90
4757;DHT22;2392;52.578;13.426;2023-01-06T12:14:15;9.00;99.90
4757;DHT22;2392;52.578;13.426;2023-01-06T12:16:54;9.00;99.90
4757;DHT22;2392;52.578;13.426;2023-01-06T12:19:25;9.10;99.90
4757;DHT22;2392;52.578;13.426;2023-01-06T12:21:57;9.10;99.90
4757;DHT22;2392;52.578;13.426;2023-01-06T12:24:25;9.10;99.90
4757;DHT22;2392;52.578;13.426;2023-01-06T12:26:52;9.20;99.90
4757;DHT22;2392;52.578;13.426;2023-01-06T12:29:21;9.20;99.90
4757;DHT22;2392;52.578;13.426;2023-01-06T12:31:56;9.30;99.90
4757;DHT22;2392;52.578;13.426;2023-01-06T12:34:28;9.40;99.90
4757;DHT22;2392;52.578;13.426;2023-01-06T12:37:03;9.40;99.90
4757;DHT22;2392;52.578;13.426;2023-01-06T12:39:38;9.40;99.90
4757;DHT22;2392;52.578;13.426;2023-01-06T12:42:17;9.50;99.90
4757;DHT22;2392;52.578;13.426;2023-01-06T12:44:50;9.50;99.90
4757;DHT22;2392;52.578;13.426;2023-01-06T12:47:24;9.50;99.90
4757;DHT22;2392;52.578;13.426;2023-01-06T12:49:57;9.60;99.90
4757;DHT22;2392;52.578;13.426;2023-01-06T12:52:30;9.60;99.90
4757;DHT22;2392;52.578;13.426;2023-01-06T12:54:59;9.60;99.90
4757;DHT22;2392;52.578;13.426;2023-01-06T12:57:45;9.60;99.90
4757;DHT22;2392;52.578;13.426;2023-01-06T13:00:29;9.70;99.90
4757;DHT22;2392;52.578;13.426;2023-01-06T13:03:17;9.70;99.90
4757;DHT22;2392;52.578;13.426;2023-01-06T13:06:00;9.70;99.90
4757;DHT22;2392;52.578;13.426;2023-01-06T13:08:43;9.70;99.90
4757;DHT22;2392;52.578;13.426;2023-01-06T13:11:17;9.80;99.90
4757;DHT22;2392;52.578;13.426;2023-01-06T13:13:52;9.80;99.90
4757;DHT22;2392;52.578;13.426;2023-01-06T13:16:26;9.80;99.90
4757;DHT22;2392;52.578;13.426;2023-01-06T13:19:08;9.90;99.90
4757;DHT22;2392;52.578;13.426;2023-01-06T13:21:37;9.90;99.90
4757;DHT22;2392;52.578;13.426;2023-01-06T13:24:32;10.00;99.90
4757;DHT22;2392;52.578;13.426;2023-01-06T13:27:14;10.00;99.90
4757;DHT22;2392;52.578;13.426;2023-01-06T13:29:53;10.00;99.90
4757;DHT22;2392;52.578;13.426;2023-01-06T13:32:50;10.00;99.90
4757;DHT22;2392;52.578;13.426;2023-01-06T13:35:35;10.10;99.90
4757;DHT22;2392;52.578;13.426;2023-01-06T13:40:57;10.20;99.90
4757;DHT22;2392;52.578;13.426;2023-01-06T13:43:28;10.20;99.90
4757;DHT22;2392;52.578;13.426;2023-01-06T13:45:57;10.20;99.90
4757;DHT22;2392;52.578;13.426;2023-01-06T13:48:28;10.20;99.90
4757;DHT22;2392;52.578;13.426;2023-01-06T13:50:58;10.20;99.90
4757;DHT22;2392;52.578;13.426;2023-01-06T13:53:35;10.20;99.90
4757;DHT22;2392;52.578;13.426;2023-01-06T13:56:22;10.20;99.90
4757;DHT22;2392;52.578;13.426;2023-01-06T13:59:18;10.20;99.90
4757;DHT22;2392;52.578;13.426;2023-01-06T14:01:46;10.20;99.90
4757;DHT22;2392;52.578;13.426;2023-01-06T14:07:33;10.20;99.90
4757;DHT22;2392;52.578;13.426;2023-01-06T14:10:04;10.30;99.90
4757;DHT22;2392;52.578;13.426;2023-01-06T14:12:33;10.30;99.90
4757;DHT22;2392;52.578;13.426;2023-01-06T14:15:04;10.30;99.90
4757;DHT22;2392;52.578;13.426;2023-01-06T14:17:37;10.30;99.90
4757;DHT22;2392;52.578;13.426;2023-01-06T14:20:06;10.30;99.90
4757;DHT22;2392;52.578;13.426;2023-01-06T14:22:57;10.30;99.90
4757;DHT22;2392;52.578;13.426;2023-01-06T14:25:26;10.30;99.90
4757;DHT22;2392;52.578;13.426;2023-01-06T14:28:22;10.20;99.90
4757;DHT22;2392;52.578;13.426;2023-01-06T14:34:15;10.30;99.90
4757;DHT22;2392;52.578;13.426;2023-01-06T14:36:43;10.20;99.90
4757;DHT22;2392;52.578;13.426;2023-01-06T14:39:18;10.20;99.90
4757;DHT22;2392;52.578;13.426;2023-01-06T14:41:57;10.30;99.90
4757;DHT22;2392;52.578;13.426;2023-01-06T14:44:29;10.30;99.90
4757;DHT22;2392;52.578;13.426;2023-01-06T14:47:01;10.30;99.90
4757;DHT22;2392;52.578;13.426;2023-01-06T14:49:37;10.30;99.90
4757;DHT22;2392;52.578;13.426;2023-01-06T14:52:11;10.30;99.90
4757;DHT22;2392;52.578;13.426;2023-01-06T14:54:43;10.30;99.90
4757;DHT22;2392;52.578;13.426;2023-01-06T14:57:23;10.30;99.90
4757;DHT22;2392;52.578;13.426;2023-01-06T15:00:11;10.20;99.90
4757;DHT22;2392;52.578;13.426;2023-01-06T15:02:44;10.20;99.90
4757;DHT22;2392;52.578;13.426;2023-01-06T15:05:21;10.10;99.90
4757;DHT22;2392;52.578;13.426;2023-01-06T15:07:57;10.10;99.90
4757;DHT22;2392;52.578;13.426;2023-01-06T15:10:25;10.10;99.90
4757;DHT22;2392;52.578;13.426;2023-01-06T15:12:53;10.10;99.90
4757;DHT22;2392;52.578;13.426;2023-01-06T15:15:22;10.10;99.90
4757;DHT22;2392;52.578;13.426;2023-01-06T15:17:50;10.10;99.90
4757;DHT22;2392;52.578;13.426;2023-01-06T15:20:22;10.10;99.90
4757;DHT22;2392;52.578;13.426;2023-01-06T15:22:52;10.10;99.90
4757;DHT22;2392;52.578;13.426;2023-01-06T15:25:20;10.00;99.90
4757;DHT22;2392;52.578;13.426;2023-01-06T15:27:48;10.00;99.90
4757;DHT22;2392;52.578;13.426;2023-01-06T15:30:19;10.00;99.90
4757;DHT22;2392;52.578;13.426;2023-01-06T15:32:48;10.00;99.90
4757;DHT22;2392;52.578;13.426;2023-01-06T15:35:21;10.00;99.90
4757;DHT22;2392;52.578;13.426;2023-01-06T15:37:54;9.90;99.90
4757;DHT22;2392;52.578;13.426;2023-01-06T15:40:24;10.00;99.90
4757;DHT22;2392;52.578;13.426;2023-01-06T15:42:52;9.90;99.90
4757;DHT22;2392;52.578;13.426;2023-01-06T15:45:25;9.80;99.90
4757;DHT22;2392;52.578;13.426;2023-01-06T15:47:52;9.70;99.90
4757;DHT22;2392;52.578;13.426;2023-01-06T15:50:24;9.70;99.90
4757;DHT22;2392;52.578;13.426;2023-01-06T15:52:53;9.70;99.90
4757;DHT22;2392;52.578;13.426;2023-01-06T15:55:24;9.60;99.90
4757;DHT22;2392;52.578;13.426;2023-01-06T15:57:56;9.60;99.90
4757;DHT22;2392;52.578;13.426;2023-01-06T16:00:27;9.60;99.90
4757;DHT22;2392;52.578;13.426;2023-01-06T16:02:55;9.60;99.90
4757;DHT22;2392;52.578;13.426;2023-01-06T16:05:38;9.60;99.90
4757;DHT22;2392;52.578;13.426;2023-01-06T16:08:13;9.50;99.90
4757;DHT22;2392;52.578;13.426;2023-01-06T16:10:41;9.50;99.90
4757;DHT22;2392;52.578;13.426;2023-01-06T16:13:20;9.50;99.90
4757;DHT22;2392;52.578;13.426;2023-01-06T16:15:50;9.50;99.90
4757;DHT22;2392;52.578;13.426;2023-01-06T16:18:26;9.40;99.90
4757;DHT22;2392;52.578;13.426;2023-01-06T16:20:55;9.50;99.90
4757;DHT22;2392;52.578;13.426;2023-01-06T16:23:31;9.40;99.90
4757;DHT22;2392;52.578;13.426;2023-01-06T16:26:04;9.40;99.90
4757;DHT22;2392;52.578;13.426;2023-01-06T16:28:32;9.40;99.90
4757;DHT22;2392;52.578;13.426;2023-01-06T16:31:05;9.40;99.90
4757;DHT22;2392;52.578;13.426;2023-01-06T16:33:35;9.50;99.90
4757;DHT22;2392;52.578;13.426;2023-01-06T16:36:13;9.50;99.90
4757;DHT22;2392;52.578;13.426;2023-01-06T16:38:41;9.50;99.90
4757;DHT22;2392;52.578;13.426;2023-01-06T16:41:17;9.50;99.90
4757;DHT22;2392;52.578;13.426;2023-01-06T16:43:45;9.50;99.90
4757;DHT22;2392;52.578;13.426;2023-01-06T16:46:17;9.50;99.90
4757;DHT22;2392;52.578;13.426;2023-01-06T16:48:44;9.40;99.90
4757;DHT22;2392;52.578;13.426;2023-01-06T16:51:15;9.50;99.90